Lake Arthur, Louisiana
Current Conditions -  °F | °C
As of 4:35 PM on Friday 19 Dec 2014 (Local Time) from K3R7 Reporting Station
Light Rain Light Rain  
Wind Chill: 12°   Ceiling: 500
Heat Index: 12°   Visibility: 10mi
Dew Point: 12°   Wind: 12mph
Humidity: 97%   Direction: 40°NE
Pressure: 30.05"   Gusts: NA
Location:  30.08°N, 92.67°W
Report Text: K3R7 192235Z AUTO 04010KT 10SM -RA OVC005 12/12 A3005 RMK AO2 P0002 T01200115
Loading
Personal Weather Stations






























Interactive Weather Map New forecast layout! Learn more

10-Day Weather Forecast

Advertisements
Track Severe Weather on mobile